| time (UTC) | temp C | wind direction | speed KPH | gust KPH | rain 1hr cm | rain 24hr cm | rain mn cm | humidity % | barometer mb |
| 20260502150841 | 11 | 214 | 4.8 | 9.7 | 0.00 | 0.00 | 0.00 | 37 | 1020.1 |
| 20260502123519 | 0 | 44 | 1.6 | 4.8 | 0.00 | 0.00 | 0.00 | 75 | 1020.1 |
| 20260502122839 | 0 | 46 | 1.6 | 4.8 | 0.00 | 0.00 | 0.00 | 76 | 1020.1 |
| 20260502121519 | 0 | 69 | 1.6 | 3.2 | 0.00 | 0.00 | 0.00 | 84 | 1020.1 |
| 20260502120839 | 0 | 41 | 1.6 | 3.2 | 0.00 | 0.00 | 0.00 | 87 | 1020.1 |
| 20260502120159 | 0 | 38 | 1.6 | 3.2 | 0.00 | 0.00 | 0.00 | 84 | 1020.1 |
| 20260502115520 | 0 | 47 | 1.6 | 3.2 | 0.00 | 0.00 | 0.00 | 85 | 1020.1 |
| 20260502114840 | 0 | 72 | 1.6 | 3.2 | 0.00 | 0.00 | 0.00 | 83 | 1020.1 |
| 20260502113520 | 0 | 64 | 1.6 | 3.2 | 0.00 | 0.00 | 0.00 | 82 | 1020.5 |
| 20260502112840 | 0 | 72 | 1.6 | 3.2 | 0.00 | 0.00 | 0.00 | 81 | 1020.1 |
| 20260502112200 | 0 | 62 | 1.6 | 4.8 | 0.00 | 0.00 | 0.00 | 81 | 1020.1 |
| 20260502110840 | 0 | 31 | 1.6 | 3.2 | 0.00 | 0.00 | 0.00 | 74 | 1020.5 |
| 20260502110200 | 0 | 24 | 1.6 | 3.2 | 0.00 | 0.00 | 0.00 | 73 | 1020.5 |
| 20260502105520 | 0 | 35 | 1.6 | 3.2 | 0.00 | 0.00 | 0.00 | 74 | 1020.5 |
| 20260502104840 | 0 | 39 | 0.0 | 1.6 | 0.00 | 0.00 | 0.00 | 74 | 1020.5 |
| 20260502104200 | 0 | 182 | 0.0 | 1.6 | 0.00 | 0.00 | 0.00 | 74 | 1020.5 |
| 20260502103520 | 0 | 88 | 1.6 | 3.2 | 0.00 | 0.00 | 0.00 | 74 | 1020.5 |
| 20260502102840 | 0 | 74 | 1.6 | 3.2 | 0.00 | 0.00 | 0.00 | 74 | 1020.5 |
| 20260502101520 | 1 | 100 | 1.6 | 3.2 | 0.00 | 0.00 | 0.00 | 71 | 1020.5 |
| 20260502100840 | 0 | 252 | 1.6 | 3.2 | 0.00 | 0.00 | 0.00 | 76 | 1020.5 |
| 20260502100200 | 0 | 69 | 1.6 | 4.8 | 0.00 | 0.00 | 0.00 | 76 | 1020.5 |
| 20260502091520 | 1 | 73 | 1.6 | 3.2 | 0.00 | 0.00 | 0.00 | 68 | 1020.5 |
| 20260502090840 | 1 | 84 | 1.6 | 3.2 | 0.00 | 0.00 | 0.00 | 67 | 1020.5 |
| 20260502070840 | 4 | 276 | 1.6 | 6.4 | 0.00 | 0.00 | 0.00 | 62 | 1020.9 |
| 20260502070200 | 3 | 239 | 3.2 | 8.0 | 0.00 | 0.00 | 0.00 | 65 | 1020.9 |
| 20260502065520 | 3 | 266 | 4.8 | 9.7 | 0.00 | 0.00 | 0.00 | 68 | 1020.9 |
| 20260502064840 | 4 | 258 | 4.8 | 6.4 | 0.00 | 0.00 | 0.00 | 60 | 1020.9 |
| 20260502064200 | 5 | 237 | 1.6 | 3.2 | 0.00 | 0.00 | 0.00 | 60 | 1020.9 |
| 20260502063520 | 4 | 162 | 1.6 | 3.2 | 0.00 | 0.00 | 0.00 | 60 | 1020.9 |
| 20260502062840 | 3 | 138 | 0.0 | 4.8 | 0.00 | 0.00 | 0.00 | 64 | 1020.9 |
| 20260502062200 | 3 | 56 | 1.6 | 4.8 | 0.00 | 0.00 | 0.00 | 63 | 1020.9 |
| 20260502061520 | 5 | 61 | 3.2 | 4.8 | 0.00 | 0.00 | 0.00 | 56 | 1020.9 |
| 20260502055520 | 5 | 304 | 1.6 | 3.2 | 0.00 | 0.00 | 0.00 | 55 | 1020.9 |
| 20260502054840 | 6 | 286 | 0.0 | 3.2 | 0.00 | 0.00 | 0.00 | 52 | 1020.9 |
| 20260502054200 | 6 | 119 | 1.6 | 3.2 | 0.00 | 0.00 | 0.00 | 54 | 1020.9 |
| 20260502053520 | 6 | 220 | 1.6 | 6.4 | 0.00 | 0.00 | 0.00 | 51 | 1020.9 |
| 20260502052840 | 6 | 98 | 4.8 | 6.4 | 0.00 | 0.00 | 0.00 | 50 | 1020.9 |
| 20260502052200 | 7 | 354 | 1.6 | 4.8 | 0.00 | 0.00 | 0.00 | 49 | 1020.9 |
| 20260502051520 | 7 | 310 | 1.6 | 4.8 | 0.00 | 0.00 | 0.00 | 47 | 1020.9 |
| 20260502050840 | 7 | 251 | 3.2 | 6.4 | 0.00 | 0.00 | 0.00 | 45 | 1020.9 |
| 20260502050200 | 7 | 260 | 4.8 | 6.4 | 0.00 | 0.00 | 0.00 | 49 | 1020.9 |
| 20260502045520 | 7 | 213 | 3.2 | 6.4 | 0.00 | 0.00 | 0.00 | 41 | 1020.9 |
| 20260502044840 | 7 | 274 | 1.6 | 3.2 | 0.00 | 0.00 | 0.00 | 40 | 1020.9 |
| 20260502044200 | 7 | 50 | 1.6 | 3.2 | 0.00 | 0.00 | 0.00 | 40 | 1020.9 |
| 20260502043520 | 8 | 227 | 1.6 | 3.2 | 0.00 | 0.00 | 0.00 | 39 | 1020.9 |
| 20260502042200 | 8 | 306 | 1.6 | 3.2 | 0.00 | 0.00 | 0.00 | 35 | 1020.9 |
| 20260502041520 | 8 | 43 | 1.6 | 4.8 | 0.00 | 0.00 | 0.00 | 36 | 1020.9 |
| 20260502040840 | 8 | 17 | 3.2 | 6.4 | 0.00 | 0.00 | 0.00 | 36 | 1020.9 |
| 20260502040200 | 8 | 35 | 1.6 | 6.4 | 0.00 | 0.00 | 0.00 | 36 | 1020.9 |
| 20260502034840 | 8 | 64 | 1.6 | 6.4 | 0.00 | 0.00 | 0.00 | 36 | 1020.9 |
| 20260502034200 | 8 | 78 | 3.2 | 6.4 | 0.00 | 0.00 | 0.00 | 38 | 1020.9 |
| 20260502033520 | 8 | 77 | 3.2 | 4.8 | 0.00 | 0.00 | 0.00 | 38 | 1020.5 |
| 20260502032840 | 8 | 86 | 1.6 | 4.8 | 0.00 | 0.00 | 0.00 | 38 | 1020.5 |
| 20260502031520 | 9 | 30 | 3.2 | 6.4 | 0.00 | 0.00 | 0.00 | 36 | 1020.5 |
| 20260502030840 | 9 | 32 | 3.2 | 6.4 | 0.00 | 0.00 | 0.00 | 36 | 1020.1 |
| 20260502030200 | 10 | 357 | 1.6 | 4.8 | 0.00 | 0.00 | 0.00 | 35 | 1020.1 |
| 20260502025520 | 10 | 26 | 1.6 | 6.4 | 0.00 | 0.00 | 0.00 | 34 | 1020.1 |
| 20260502024840 | 10 | 13 | 3.2 | 6.4 | 0.00 | 0.00 | 0.00 | 34 | 1019.7 |
| 20260502023520 | 10 | 23 | 3.2 | 12.9 | 0.00 | 0.00 | 0.00 | 34 | 1019.7 |
| 20260502022840 | 11 | 24 | 3.2 | 9.7 | 0.00 | 0.00 | 0.00 | 31 | 1019.7 |
| 20260502022200 | 11 | 359 | 3.2 | 9.7 | 0.00 | 0.00 | 0.00 | 30 | 1019.3 |
| 20260502021520 | 11 | 11 | 6.4 | 11.3 | 0.00 | 0.00 | 0.00 | 30 | 1019.3 |
| 20260502020840 | 12 | 10 | 4.8 | 11.3 | 0.00 | 0.00 | 0.00 | 28 | 1019.3 |
| 20260502020200 | 13 | 6 | 3.2 | 9.7 | 0.00 | 0.00 | 0.00 | 27 | 1019.3 |
| 20260502015520 | 13 | 339 | 6.4 | 9.7 | 0.00 | 0.00 | 0.00 | 26 | 1019.3 |
| 20260502014840 | 13 | 338 | 4.8 | 9.7 | 0.00 | 0.00 | 0.00 | 25 | 1019.3 |
| 20260502014200 | 14 | 333 | 6.4 | 11.3 | 0.00 | 0.00 | 0.00 | 24 | 1019.3 |
| 20260502013520 | 14 | 311 | 3.2 | 11.3 | 0.00 | 0.00 | 0.00 | 22 | 1018.9 |
| 20260502012840 | 14 | 4 | 4.8 | 8.0 | 0.00 | 0.00 | 0.00 | 22 | 1018.9 |
| 20260502011520 | 15 | 314 | 3.2 | 6.4 | 0.00 | 0.00 | 0.00 | 20 | 1018.9 |
| 20260502010840 | 15 | 321 | 3.2 | 4.8 | 0.00 | 0.00 | 0.00 | 21 | 1018.9 |
| 20260502010200 | 15 | 342 | 1.6 | 6.4 | 0.00 | 0.00 | 0.00 | 21 | 1018.9 |
| 20260502005520 | 14 | 358 | 3.2 | 8.0 | 0.00 | 0.00 | 0.00 | 22 | 1018.9 |
| 20260502004840 | 15 | 350 | 4.8 | 11.3 | 0.00 | 0.00 | 0.00 | 22 | 1018.9 |
| 20260502004200 | 15 | 343 | 6.4 | 12.9 | 0.00 | 0.00 | 0.00 | 21 | 1018.9 |
| 20260502003520 | 15 | 333 | 6.4 | 11.3 | 0.00 | 0.00 | 0.00 | 22 | 1018.9 |
| 20260502002840 | 15 | 330 | 6.4 | 16.1 | 0.00 | 0.00 | 0.00 | 21 | 1018.9 |
| 20260502002200 | 15 | 338 | 8.0 | 16.1 | 0.00 | 0.00 | 0.00 | 21 | 1018.9 |
| 20260502001520 | 15 | 321 | 9.7 | 19.3 | 0.00 | 0.00 | 0.00 | 20 | 1018.9 |
| 20260502000840 | 15 | 347 | 8.0 | 14.5 | 0.00 | 0.00 | 0.00 | 20 | 1018.9 |
| 20260502000200 | 15 | 335 | 4.8 | 17.7 | 0.00 | 0.00 | 0.00 | 20 | 1018.9 |
| 20260501235520 | 16 | 14 | 8.0 | 20.9 | 0.00 | 0.00 | 0.00 | 20 | 1018.9 |
| 20260501234840 | 16 | 27 | 4.8 | 12.9 | 0.00 | 0.00 | 0.00 | 21 | 1018.9 |
| 20260501233520 | 16 | 303 | 3.2 | 8.0 | 0.00 | 0.00 | 0.00 | 19 | 1018.9 |
| 20260501232840 | 15 | 234 | 1.6 | 6.4 | 0.00 | 0.00 | 0.00 | 19 | 1018.9 |
| 20260501232200 | 15 | 334 | 3.2 | 9.7 | 0.00 | 0.00 | 0.00 | 20 | 1018.9 |
| 20260501231520 | 15 | 15 | 3.2 | 11.3 | 0.00 | 0.00 | 0.00 | 20 | 1018.9 |
| 20260501230840 | 15 | 10 | 1.6 | 11.3 | 0.00 | 0.00 | 0.00 | 20 | 1018.9 |
| 20260501230200 | 15 | 293 | 4.8 | 14.5 | 0.00 | 0.00 | 0.00 | 20 | 1018.9 |
| 20260501225520 | 15 | 343 | 6.4 | 14.5 | 0.00 | 0.00 | 0.00 | 20 | 1018.5 |
| 20260501224200 | 15 | 327 | 12.9 | 22.5 | 0.00 | 0.00 | 0.00 | 21 | 1018.5 |
| 20260501221520 | 15 | 264 | 9.7 | 20.9 | 0.00 | 0.00 | 0.00 | 20 | 1018.9 |
| 20260501220840 | 15 | 302 | 11.3 | 20.9 | 0.00 | 0.00 | 0.00 | 19 | 1018.9 |
| 20260501220200 | 16 | 293 | 9.7 | 25.7 | 0.00 | 0.00 | 0.00 | 18 | 1018.9 |
| 20260501215520 | 16 | 297 | 14.5 | 29.0 | 0.00 | 0.00 | 0.00 | 18 | 1018.9 |
| 20260501214840 | 15 | 321 | 8.0 | 20.9 | 0.00 | 0.00 | 0.00 | 19 | 1018.9 |
| 20260501214200 | 15 | 46 | 4.8 | 17.7 | 0.00 | 0.00 | 0.00 | 18 | 1018.9 |
| 20260501213520 | 16 | 315 | 9.7 | 16.1 | 0.00 | 0.00 | 0.00 | 17 | 1019.3 |
| 20260501212840 | 16 | 290 | 6.4 | 27.4 | 0.00 | 0.00 | 0.00 | 18 | 1019.3 |
| 20260501212200 | 15 | 305 | 14.5 | 27.4 | 0.00 | 0.00 | 0.00 | 19 | 1019.3 |
| 20260501211520 | 15 | 14 | 8.0 | 17.7 | 0.00 | 0.00 | 0.00 | 19 | 1019.3 |
| 20260501210840 | 15 | 325 | 4.8 | 16.1 | 0.00 | 0.00 | 0.00 | 17 | 1019.3 |
| 20260501210200 | 16 | 289 | 6.4 | 24.1 | 0.00 | 0.00 | 0.00 | 17 | 1019.3 |
| 20260501205520 | 15 | 311 | 6.4 | 27.4 | 0.00 | 0.00 | 0.00 | 18 | 1019.3 |
| 20260501204200 | 15 | 272 | 11.3 | 22.5 | 0.00 | 0.00 | 0.00 | 18 | 1019.3 |
| 20260501203520 | 15 | 308 | 9.7 | 22.5 | 0.00 | 0.00 | 0.00 | 17 | 1019.7 |
| 20260501202840 | 15 | 324 | 11.3 | 30.6 | 0.00 | 0.00 | 0.00 | 17 | 1019.7 |
| 20260501202200 | 15 | 330 | 14.5 | 25.7 | 0.00 | 0.00 | 0.00 | 17 | 1019.7 |
| 20260501201520 | 14 | 36 | 12.9 | 27.4 | 0.00 | 0.00 | 0.00 | 16 | 1019.7 |
| 20260501200840 | 15 | 274 | 6.4 | 27.4 | 0.00 | 0.00 | 0.00 | 16 | 1019.7 |
| 20260501200200 | 15 | 336 | 6.4 | 24.1 | 0.00 | 0.00 | 0.00 | 17 | 1019.7 |
| 20260501194200 | 15 | 327 | 11.3 | 25.7 | 0.00 | 0.00 | 0.00 | 17 | 1019.7 |
| 20260501193520 | 15 | 202 | 14.5 | 25.7 | 0.00 | 0.00 | 0.00 | 19 | 1019.7 |
| 20260501192840 | 14 | 45 | 4.8 | 17.7 | 0.00 | 0.00 | 0.00 | 19 | 1019.7 |
| 20260501192200 | 15 | 327 | 11.3 | 16.1 | 0.00 | 0.00 | 0.00 | 18 | 1019.7 |
| 20260501191520 | 15 | 267 | 6.4 | 24.1 | 0.00 | 0.00 | 0.00 | 20 | 1019.7 |
| 20260501190840 | 13 | 246 | 9.7 | 24.1 | 0.00 | 0.00 | 0.00 | 21 | 1019.7 |
| 20260501190200 | 13 | 196 | 8.0 | 22.5 | 0.00 | 0.00 | 0.00 | 22 | 1020.1 |
| 20260501185520 | 13 | 236 | 8.0 | 16.1 | 0.00 | 0.00 | 0.00 | 21 | 1020.1 |
| 20260501184840 | 13 | 263 | 4.8 | 14.5 | 0.00 | 0.00 | 0.00 | 22 | 1020.1 |
| 20260501184200 | 13 | 329 | 4.8 | 16.1 | 0.00 | 0.00 | 0.00 | 21 | 1020.1 |
| 20260501183520 | 12 | 267 | 8.0 | 19.3 | 0.00 | 0.00 | 0.00 | 23 | 1020.1 |
| 20260501182840 | 12 | 230 | 11.3 | 22.5 | 0.00 | 0.00 | 0.00 | 22 | 1020.5 |
| 20260501182200 | 12 | 271 | 11.3 | 22.5 | 0.00 | 0.00 | 0.00 | 22 | 1020.5 |
| 20260501181520 | 12 | 223 | 8.0 | 24.1 | 0.00 | 0.00 | 0.00 | 23 | 1020.5 |
| 20260501180840 | 12 | 220 | 14.5 | 22.5 | 0.00 | 0.00 | 0.00 | 22 | 1020.5 |
| 20260501180200 | 12 | 305 | 4.8 | 16.1 | 0.00 | 0.00 | 0.00 | 23 | 1020.5 |
| 20260501175520 | 12 | 234 | 9.7 | 17.7 | 0.00 | 0.00 | 0.00 | 23 | 1020.5 |
| 20260501174840 | 12 | 301 | 11.3 | 40.2 | 0.00 | 0.00 | 0.00 | 23 | 1020.5 |
| 20260501174200 | 12 | 245 | 16.1 | 40.2 | 0.00 | 0.00 | 0.00 | 26 | 1020.1 |
| 20260501173520 | 11 | 246 | 6.4 | 22.5 | 0.00 | 0.00 | 0.00 | 25 | 1020.9 |
| 20260501172840 | 11 | 273 | 9.7 | 22.5 | 0.00 | 0.00 | 0.00 | 25 | 1020.9 |
| 20260501172200 | 11 | 304 | 3.2 | 12.9 | 0.00 | 0.00 | 0.00 | 25 | 1020.9 |
| 20260501171520 | 11 | 252 | 6.4 | 20.9 | 0.00 | 0.00 | 0.00 | 25 | 1020.9 |
| 20260501170840 | 11 | 228 | 12.9 | 20.9 | 0.00 | 0.00 | 0.00 | 27 | 1020.9 |
| 20260501170200 | 11 | 225 | 8.0 | 20.9 | 0.00 | 0.00 | 0.00 | 26 | 1020.9 |
| 20260501165520 | 11 | 254 | 9.7 | 22.5 | 0.00 | 0.00 | 0.00 | 26 | 1020.9 |
| 20260501164840 | 10 | 258 | 6.4 | 24.1 | 0.00 | 0.00 | 0.00 | 26 | 1020.9 |
| 20260501163520 | 10 | 225 | 14.5 | 27.4 | 0.00 | 0.00 | 0.00 | 27 | 1020.9 |
| 20260501162839 | 10 | 243 | 14.5 | 27.4 | 0.00 | 0.00 | 0.00 | 28 | 1020.9 |
| 20260501162159 | 10 | 251 | 9.7 | 20.9 | 0.00 | 0.00 | 0.00 | 28 | 1020.9 |
| 20260501161519 | 10 | 238 | 12.9 | 24.1 | 0.00 | 0.00 | 0.00 | 29 | 1020.9 |
| 20260501160839 | 10 | 257 | 12.9 | 25.7 | 0.00 | 0.00 | 0.00 | 30 | 1020.9 |
| 20260501160159 | 10 | 240 | 17.7 | 27.4 | 0.00 | 0.00 | 0.00 | 30 | 1020.5 |
| 20260501155519 | 9 | 262 | 12.9 | 25.7 | 0.00 | 0.00 | 0.00 | 32 | 1020.9 |
| 20260501154159 | 9 | 258 | 12.9 | 24.1 | 0.00 | 0.00 | 0.00 | 32 | 1020.9 |
| 20260501153519 | 9 | 250 | 12.9 | 24.1 | 0.00 | 0.00 | 0.00 | 31 | 1020.9 |